sensor_id;sensor_type;location;lat;lon;timestamp;pressure;altitude;pressure_sealevel;temperature;humidity
49063;BME280;34876;51.464;-0.150;2023-12-20T00:02:17;102099.59;;;17.51;44.40
49063;BME280;34876;51.464;-0.150;2023-12-20T00:04:47;102102.42;;;17.50;44.36
49063;BME280;34876;51.464;-0.150;2023-12-20T00:07:17;102102.02;;;17.52;44.28
49063;BME280;34876;51.464;-0.150;2023-12-20T00:09:48;102102.51;;;17.53;44.29
49063;BME280;34876;51.464;-0.150;2023-12-20T00:12:17;102104.00;;;17.51;44.34
49063;BME280;34876;51.464;-0.150;2023-12-20T00:14:48;102101.99;;;17.51;44.26
49063;BME280;34876;51.464;-0.150;2023-12-20T00:17:18;102098.04;;;17.52;44.24
49063;BME280;34876;51.464;-0.150;2023-12-20T00:19:47;102095.67;;;17.51;44.26
49063;BME280;34876;51.464;-0.150;2023-12-20T00:22:18;102088.65;;;17.50;44.22
49063;BME280;34876;51.464;-0.150;2023-12-20T00:24:49;102082.96;;;17.52;44.40
49063;BME280;34876;51.464;-0.150;2023-12-20T00:27:19;102083.71;;;17.53;44.59
49063;BME280;34876;51.464;-0.150;2023-12-20T00:29:49;102084.96;;;17.54;44.26
49063;BME280;34876;51.464;-0.150;2023-12-20T00:32:19;102089.60;;;17.50;44.26
49063;BME280;34876;51.464;-0.150;2023-12-20T00:34:49;102088.35;;;17.51;44.18
49063;BME280;34876;51.464;-0.150;2023-12-20T00:37:21;102093.52;;;17.41;44.45
49063;BME280;34876;51.464;-0.150;2023-12-20T00:39:51;102098.79;;;17.50;44.16
49063;BME280;34876;51.464;-0.150;2023-12-20T00:42:21;102090.68;;;17.50;44.20
49063;BME280;34876;51.464;-0.150;2023-12-20T00:44:51;102092.23;;;17.50;44.09
49063;BME280;34876;51.464;-0.150;2023-12-20T00:47:20;102092.22;;;17.49;44.12
49063;BME280;34876;51.464;-0.150;2023-12-20T00:49:51;102093.04;;;17.50;44.05
49063;BME280;34876;51.464;-0.150;2023-12-20T00:52:21;102091.61;;;17.49;43.99
49063;BME280;34876;51.464;-0.150;2023-12-20T00:54:51;102088.55;;;17.50;44.03
49063;BME280;34876;51.464;-0.150;2023-12-20T00:57:21;102087.19;;;17.49;43.98
49063;BME280;34876;51.464;-0.150;2023-12-20T00:59:49;102080.33;;;17.46;43.97
49063;BME280;34876;51.464;-0.150;2023-12-20T01:03:39;102077.52;;;17.50;43.78
49063;BME280;34876;51.464;-0.150;2023-12-20T01:06:08;102080.02;;;17.47;43.88
49063;BME280;34876;51.464;-0.150;2023-12-20T01:08:38;102081.65;;;17.47;43.78
49063;BME280;34876;51.464;-0.150;2023-12-20T01:11:08;102078.60;;;17.46;43.86
49063;BME280;34876;51.464;-0.150;2023-12-20T01:13:37;102080.00;;;17.46;43.88
49063;BME280;34876;51.464;-0.150;2023-12-20T01:16:10;102080.07;;;17.47;43.73
49063;BME280;34876;51.464;-0.150;2023-12-20T01:18:40;102067.12;;;17.45;43.71
49063;BME280;34876;51.464;-0.150;2023-12-20T01:21:09;102062.83;;;17.46;43.74
49063;BME280;34876;51.464;-0.150;2023-12-20T01:23:39;102058.13;;;17.44;43.71
49063;BME280;34876;51.464;-0.150;2023-12-20T01:26:09;102059.55;;;17.44;43.74
49063;BME280;34876;51.464;-0.150;2023-12-20T01:28:39;102058.90;;;17.45;43.64
49063;BME280;34876;51.464;-0.150;2023-12-20T01:31:10;102057.94;;;17.43;43.61
49063;BME280;34876;51.464;-0.150;2023-12-20T01:33:40;102066.61;;;17.43;43.60
49063;BME280;34876;51.464;-0.150;2023-12-20T01:36:10;102070.46;;;17.43;43.60
49063;BME280;34876;51.464;-0.150;2023-12-20T01:38:41;102075.21;;;17.43;43.62
49063;BME280;34876;51.464;-0.150;2023-12-20T01:41:11;102077.02;;;17.43;43.62
49063;BME280;34876;51.464;-0.150;2023-12-20T01:43:41;102078.29;;;17.42;43.49
49063;BME280;34876;51.464;-0.150;2023-12-20T01:46:11;102080.34;;;17.42;43.53
49063;BME280;34876;51.464;-0.150;2023-12-20T01:48:41;102078.97;;;17.41;43.47
49063;BME280;34876;51.464;-0.150;2023-12-20T01:51:11;102076.68;;;17.41;43.55
49063;BME280;34876;51.464;-0.150;2023-12-20T01:53:41;102070.37;;;17.41;43.57
49063;BME280;34876;51.464;-0.150;2023-12-20T01:56:11;102069.74;;;17.40;43.45
49063;BME280;34876;51.464;-0.150;2023-12-20T01:58:44;102067.82;;;17.42;43.44
49063;BME280;34876;51.464;-0.150;2023-12-20T02:01:15;102070.28;;;17.40;43.37
49063;BME280;34876;51.464;-0.150;2023-12-20T02:03:46;102062.93;;;17.41;43.41
49063;BME280;34876;51.464;-0.150;2023-12-20T02:06:16;102056.20;;;17.40;43.37
49063;BME280;34876;51.464;-0.150;2023-12-20T02:08:48;102052.32;;;17.40;43.33
49063;BME280;34876;51.464;-0.150;2023-12-20T02:11:18;102052.59;;;17.41;43.40
49063;BME280;34876;51.464;-0.150;2023-12-20T02:13:48;102053.95;;;17.42;43.30
49063;BME280;34876;51.464;-0.150;2023-12-20T02:16:18;102043.51;;;17.41;43.36
49063;BME280;34876;51.464;-0.150;2023-12-20T02:18:48;102035.65;;;17.24;43.80
49063;BME280;34876;51.464;-0.150;2023-12-20T02:21:17;102034.80;;;17.37;43.42
49063;BME280;34876;51.464;-0.150;2023-12-20T02:23:47;102038.24;;;17.40;43.36
49063;BME280;34876;51.464;-0.150;2023-12-20T02:26:16;102036.36;;;17.38;43.35
49063;BME280;34876;51.464;-0.150;2023-12-20T02:28:45;102043.29;;;17.40;43.38
49063;BME280;34876;51.464;-0.150;2023-12-20T02:31:21;102050.08;;;17.39;43.35
49063;BME280;34876;51.464;-0.150;2023-12-20T02:33:51;102048.44;;;17.38;43.30
49063;BME280;34876;51.464;-0.150;2023-12-20T02:36:21;102051.98;;;17.37;43.39
49063;BME280;34876;51.464;-0.150;2023-12-20T02:38:51;102048.33;;;17.39;43.44
49063;BME280;34876;51.464;-0.150;2023-12-20T02:41:20;102049.68;;;17.39;43.30
49063;BME280;34876;51.464;-0.150;2023-12-20T02:43:50;102047.36;;;17.36;43.31
49063;BME280;34876;51.464;-0.150;2023-12-20T02:46:20;102051.88;;;17.37;43.27
49063;BME280;34876;51.464;-0.150;2023-12-20T02:48:48;102053.63;;;17.36;43.29
49063;BME280;34876;51.464;-0.150;2023-12-20T02:51:18;102056.16;;;17.36;43.37
49063;BME280;34876;51.464;-0.150;2023-12-20T02:53:48;102050.89;;;17.36;43.27
49063;BME280;34876;51.464;-0.150;2023-12-20T02:56:16;102052.25;;;17.36;43.18
49063;BME280;34876;51.464;-0.150;2023-12-20T02:58:47;102050.30;;;17.37;43.20
49063;BME280;34876;51.464;-0.150;2023-12-20T03:01:16;102050.94;;;17.36;43.33
49063;BME280;34876;51.464;-0.150;2023-12-20T03:03:45;102051.27;;;17.36;43.25
49063;BME280;34876;51.464;-0.150;2023-12-20T03:06:16;102049.49;;;17.36;43.27
49063;BME280;34876;51.464;-0.150;2023-12-20T03:08:46;102041.81;;;17.37;43.26
49063;BME280;34876;51.464;-0.150;2023-12-20T03:11:16;102041.55;;;17.34;43.20
49063;BME280;34876;51.464;-0.150;2023-12-20T03:13:46;102033.92;;;17.35;43.12
49063;BME280;34876;51.464;-0.150;2023-12-20T03:16:16;102035.95;;;17.35;43.10
49063;BME280;34876;51.464;-0.150;2023-12-20T03:18:45;102041.63;;;17.36;43.11
49063;BME280;34876;51.464;-0.150;2023-12-20T03:21:15;102042.06;;;17.34;43.10
49063;BME280;34876;51.464;-0.150;2023-12-20T03:23:45;102042.68;;;17.34;43.10
49063;BME280;34876;51.464;-0.150;2023-12-20T03:26:14;102044.01;;;17.33;43.19
49063;BME280;34876;51.464;-0.150;2023-12-20T03:28:44;102038.79;;;17.33;43.11
49063;BME280;34876;51.464;-0.150;2023-12-20T03:31:13;102034.91;;;17.32;43.15
49063;BME280;34876;51.464;-0.150;2023-12-20T03:33:42;102032.26;;;17.33;43.02
49063;BME280;34876;51.464;-0.150;2023-12-20T03:36:11;102028.49;;;17.32;43.03
49063;BME280;34876;51.464;-0.150;2023-12-20T03:38:41;102023.65;;;17.31;43.22
49063;BME280;34876;51.464;-0.150;2023-12-20T03:41:11;102030.19;;;17.33;43.04
49063;BME280;34876;51.464;-0.150;2023-12-20T03:43:40;102031.47;;;17.31;43.05
49063;BME280;34876;51.464;-0.150;2023-12-20T03:46:10;102031.98;;;17.31;43.02
49063;BME280;34876;51.464;-0.150;2023-12-20T03:48:39;102034.54;;;17.22;43.23
49063;BME280;34876;51.464;-0.150;2023-12-20T03:51:09;102042.95;;;17.29;43.08
49063;BME280;34876;51.464;-0.150;2023-12-20T03:53:39;102042.16;;;17.31;42.97
49063;BME280;34876;51.464;-0.150;2023-12-20T03:56:09;102038.32;;;17.29;43.08
49063;BME280;34876;51.464;-0.150;2023-12-20T03:58:38;102045.48;;;17.30;43.03
49063;BME280;34876;51.464;-0.150;2023-12-20T04:01:09;102044.99;;;17.30;42.97
49063;BME280;34876;51.464;-0.150;2023-12-20T04:03:41;102044.77;;;17.31;42.98
49063;BME280;34876;51.464;-0.150;2023-12-20T04:06:10;102046.53;;;17.32;43.02
49063;BME280;34876;51.464;-0.150;2023-12-20T04:08:45;102043.74;;;17.29;43.11
49063;BME280;34876;51.464;-0.150;2023-12-20T04:11:14;102038.95;;;17.28;43.22
49063;BME280;34876;51.464;-0.150;2023-12-20T04:13:43;102028.87;;;17.30;43.09
49063;BME280;34876;51.464;-0.150;2023-12-20T04:16:13;102026.02;;;17.29;43.16
49063;BME280;34876;51.464;-0.150;2023-12-20T04:18:42;102026.24;;;17.29;43.04
49063;BME280;34876;51.464;-0.150;2023-12-20T04:21:11;102025.47;;;17.30;43.04
49063;BME280;34876;51.464;-0.150;2023-12-20T04:23:40;102024.89;;;17.29;43.02
49063;BME280;34876;51.464;-0.150;2023-12-20T04:26:10;102018.34;;;17.29;43.07
49063;BME280;34876;51.464;-0.150;2023-12-20T04:28:40;102020.68;;;17.29;42.98
49063;BME280;34876;51.464;-0.150;2023-12-20T04:31:09;102025.25;;;17.28;43.00
49063;BME280;34876;51.464;-0.150;2023-12-20T04:33:38;102021.31;;;17.25;42.96
49063;BME280;34876;51.464;-0.150;2023-12-20T04:36:07;102024.46;;;17.25;43.03
49063;BME280;34876;51.464;-0.150;2023-12-20T04:38:37;102029.04;;;17.25;42.96
49063;BME280;34876;51.464;-0.150;2023-12-20T04:41:06;102026.93;;;17.24;42.91
49063;BME280;34876;51.464;-0.150;2023-12-20T04:43:36;102030.60;;;17.25;42.97
49063;BME280;34876;51.464;-0.150;2023-12-20T04:46:06;102024.96;;;17.23;43.12
49063;BME280;34876;51.464;-0.150;2023-12-20T04:48:35;102022.60;;;17.24;42.86
49063;BME280;34876;51.464;-0.150;2023-12-20T04:51:05;102020.86;;;17.22;42.93
49063;BME280;34876;51.464;-0.150;2023-12-20T04:53:35;102013.49;;;17.22;42.93
49063;BME280;34876;51.464;-0.150;2023-12-20T04:56:05;102010.04;;;17.21;42.83
49063;BME280;34876;51.464;-0.150;2023-12-20T04:58:35;102009.73;;;17.22;42.93
49063;BME280;34876;51.464;-0.150;2023-12-20T05:01:06;102013.85;;;17.21;42.91
49063;BME280;34876;51.464;-0.150;2023-12-20T05:03:35;102014.80;;;17.21;42.90
49063;BME280;34876;51.464;-0.150;2023-12-20T05:06:04;102017.46;;;17.20;42.85
49063;BME280;34876;51.464;-0.150;2023-12-20T05:08:34;102025.72;;;17.18;42.95
49063;BME280;34876;51.464;-0.150;2023-12-20T05:11:04;102029.28;;;17.19;42.96
49063;BME280;34876;51.464;-0.150;2023-12-20T05:13:33;102034.05;;;17.18;42.80
49063;BME280;34876;51.464;-0.150;2023-12-20T05:16:03;102038.25;;;17.18;42.81
49063;BME280;34876;51.464;-0.150;2023-12-20T05:18:33;102041.44;;;17.18;42.76
49063;BME280;34876;51.464;-0.150;2023-12-20T05:21:03;102038.35;;;17.16;42.81
49063;BME280;34876;51.464;-0.150;2023-12-20T05:23:33;102028.43;;;17.15;42.84
49063;BME280;34876;51.464;-0.150;2023-12-20T05:26:02;102025.26;;;17.15;42.80
49063;BME280;34876;51.464;-0.150;2023-12-20T05:28:31;102021.07;;;17.15;42.89
49063;BME280;34876;51.464;-0.150;2023-12-20T05:31:01;102020.20;;;17.14;42.76
49063;BME280;34876;51.464;-0.150;2023-12-20T05:33:30;102018.88;;;17.13;42.73
49063;BME280;34876;51.464;-0.150;2023-12-20T05:36:00;102011.10;;;17.14;42.83
49063;BME280;34876;51.464;-0.150;2023-12-20T05:38:29;102000.07;;;17.13;42.87
49063;BME280;34876;51.464;-0.150;2023-12-20T05:40:59;101993.91;;;17.11;42.81
49063;BME280;34876;51.464;-0.150;2023-12-20T05:43:29;101998.36;;;17.12;42.77
49063;BME280;34876;51.464;-0.150;2023-12-20T05:45:59;102001.17;;;17.11;42.72
49063;BME280;34876;51.464;-0.150;2023-12-20T05:48:28;101996.70;;;17.11;42.89
49063;BME280;34876;51.464;-0.150;2023-12-20T05:50:58;101989.79;;;17.11;42.74
49063;BME280;34876;51.464;-0.150;2023-12-20T05:53:27;101984.86;;;17.11;42.72
49063;BME280;34876;51.464;-0.150;2023-12-20T05:55:56;101988.83;;;17.09;42.74
49063;BME280;34876;51.464;-0.150;2023-12-20T05:58:25;101992.52;;;17.09;42.76
49063;BME280;34876;51.464;-0.150;2023-12-20T06:00:54;101994.70;;;17.09;42.77
49063;BME280;34876;51.464;-0.150;2023-12-20T06:03:23;101997.91;;;17.08;42.73
49063;BME280;34876;51.464;-0.150;2023-12-20T06:05:53;101991.37;;;17.08;42.87
49063;BME280;34876;51.464;-0.150;2023-12-20T06:08:23;101989.88;;;17.08;42.71
49063;BME280;34876;51.464;-0.150;2023-12-20T06:10:52;101997.37;;;17.08;42.75
49063;BME280;34876;51.464;-0.150;2023-12-20T06:13:22;102000.38;;;17.08;42.66
49063;BME280;34876;51.464;-0.150;2023-12-20T06:15:51;102004.42;;;17.07;42.69
49063;BME280;34876;51.464;-0.150;2023-12-20T06:18:21;102005.37;;;17.07;42.65
49063;BME280;34876;51.464;-0.150;2023-12-20T06:20:51;102000.63;;;17.07;42.61
49063;BME280;34876;51.464;-0.150;2023-12-20T06:23:20;101998.74;;;17.07;42.67
49063;BME280;34876;51.464;-0.150;2023-12-20T06:25:49;101999.38;;;17.06;42.82
49063;BME280;34876;51.464;-0.150;2023-12-20T06:28:18;101999.09;;;17.06;42.55
49063;BME280;34876;51.464;-0.150;2023-12-20T06:30:48;101995.49;;;17.07;42.56
49063;BME280;34876;51.464;-0.150;2023-12-20T06:33:17;101992.98;;;17.05;42.56
49063;BME280;34876;51.464;-0.150;2023-12-20T06:35:47;101998.00;;;17.05;42.62
49063;BME280;34876;51.464;-0.150;2023-12-20T06:38:18;101999.51;;;17.05;42.62
49063;BME280;34876;51.464;-0.150;2023-12-20T06:40:47;101997.56;;;17.05;42.69
49063;BME280;34876;51.464;-0.150;2023-12-20T06:43:16;101988.29;;;17.05;42.70
49063;BME280;34876;51.464;-0.150;2023-12-20T06:45:46;101988.41;;;17.04;42.54
49063;BME280;34876;51.464;-0.150;2023-12-20T06:48:16;101991.64;;;17.05;42.53
49063;BME280;34876;51.464;-0.150;2023-12-20T06:50:46;101997.16;;;17.03;42.66
49063;BME280;34876;51.464;-0.150;2023-12-20T06:53:15;101995.09;;;17.03;42.67
49063;BME280;34876;51.464;-0.150;2023-12-20T06:55:45;101989.80;;;17.03;42.50
49063;BME280;34876;51.464;-0.150;2023-12-20T06:58:15;101978.05;;;17.03;42.60
49063;BME280;34876;51.464;-0.150;2023-12-20T07:00:45;101970.31;;;17.02;42.59
49063;BME280;34876;51.464;-0.150;2023-12-20T07:03:14;101972.76;;;17.03;42.59
49063;BME280;34876;51.464;-0.150;2023-12-20T07:05:44;101972.06;;;17.04;42.64
49063;BME280;34876;51.464;-0.150;2023-12-20T07:08:13;101982.39;;;17.04;42.65
49063;BME280;34876;51.464;-0.150;2023-12-20T07:10:42;101984.71;;;17.05;42.68
49063;BME280;34876;51.464;-0.150;2023-12-20T07:13:11;101976.48;;;17.03;42.67
49063;BME280;34876;51.464;-0.150;2023-12-20T07:15:40;101971.64;;;17.05;42.60
49063;BME280;34876;51.464;-0.150;2023-12-20T07:18:09;101966.40;;;17.04;42.63
49063;BME280;34876;51.464;-0.150;2023-12-20T07:20:39;101962.96;;;17.03;42.70
49063;BME280;34876;51.464;-0.150;2023-12-20T07:23:07;101961.64;;;17.05;42.69
49063;BME280;34876;51.464;-0.150;2023-12-20T07:25:38;101950.94;;;17.03;42.62
49063;BME280;34876;51.464;-0.150;2023-12-20T07:28:08;101947.19;;;17.04;42.58
49063;BME280;34876;51.464;-0.150;2023-12-20T07:30:39;101948.52;;;17.04;42.64
49063;BME280;34876;51.464;-0.150;2023-12-20T07:33:09;101948.29;;;17.06;42.71
49063;BME280;34876;51.464;-0.150;2023-12-20T07:35:37;101948.28;;;17.04;42.70
49063;BME280;34876;51.464;-0.150;2023-12-20T07:38:08;101943.94;;;17.04;42.70
49063;BME280;34876;51.464;-0.150;2023-12-20T07:40:36;101946.37;;;17.05;42.65
49063;BME280;34876;51.464;-0.150;2023-12-20T07:43:06;101947.32;;;17.05;42.73
49063;BME280;34876;51.464;-0.150;2023-12-20T07:45:35;101945.58;;;17.05;42.69
49063;BME280;34876;51.464;-0.150;2023-12-20T07:48:06;101951.01;;;17.05;42.65
49063;BME280;34876;51.464;-0.150;2023-12-20T07:50:35;101961.41;;;17.05;42.80
49063;BME280;34876;51.464;-0.150;2023-12-20T07:53:04;101961.10;;;17.06;42.58
49063;BME280;34876;51.464;-0.150;2023-12-20T07:55:35;101960.62;;;17.05;42.63
49063;BME280;34876;51.464;-0.150;2023-12-20T07:58:05;101964.20;;;17.05;42.67
49063;BME280;34876;51.464;-0.150;2023-12-20T08:00:34;101967.42;;;17.05;42.54
49063;BME280;34876;51.464;-0.150;2023-12-20T08:03:04;101970.81;;;17.06;42.62
49063;BME280;34876;51.464;-0.150;2023-12-20T08:05:38;101968.69;;;17.06;42.60
49063;BME280;34876;51.464;-0.150;2023-12-20T08:08:08;101963.59;;;17.06;42.65
49063;BME280;34876;51.464;-0.150;2023-12-20T08:10:38;101961.81;;;17.06;42.64
49063;BME280;34876;51.464;-0.150;2023-12-20T08:13:08;101976.36;;;17.07;42.73
49063;BME280;34876;51.464;-0.150;2023-12-20T08:15:37;101969.41;;;17.08;42.67
49063;BME280;34876;51.464;-0.150;2023-12-20T08:18:08;101972.59;;;17.08;42.50
49063;BME280;34876;51.464;-0.150;2023-12-20T08:20:38;101971.13;;;17.08;42.60
49063;BME280;34876;51.464;-0.150;2023-12-20T08:23:07;101969.39;;;17.09;42.66
49063;BME280;34876;51.464;-0.150;2023-12-20T08:25:36;101971.34;;;17.09;42.58
49063;BME280;34876;51.464;-0.150;2023-12-20T08:28:06;101977.58;;;17.08;42.70
49063;BME280;34876;51.464;-0.150;2023-12-20T08:30:35;101977.13;;;17.06;42.93
49063;BME280;34876;51.464;-0.150;2023-12-20T08:33:04;101981.40;;;17.11;43.11
49063;BME280;34876;51.464;-0.150;2023-12-20T08:35:34;101983.38;;;17.14;42.79
49063;BME280;34876;51.464;-0.150;2023-12-20T08:38:04;101985.69;;;17.13;42.71
49063;BME280;34876;51.464;-0.150;2023-12-20T08:40:33;101996.77;;;17.14;42.78
49063;BME280;34876;51.464;-0.150;2023-12-20T08:43:01;101999.59;;;17.15;42.73
49063;BME280;34876;51.464;-0.150;2023-12-20T08:45:31;101999.76;;;17.15;42.66
49063;BME280;34876;51.464;-0.150;2023-12-20T08:48:01;102002.43;;;17.18;43.05
49063;BME280;34876;51.464;-0.150;2023-12-20T08:50:31;101997.67;;;17.18;42.81
49063;BME280;34876;51.464;-0.150;2023-12-20T08:53:00;101996.22;;;17.18;43.01
49063;BME280;34876;51.464;-0.150;2023-12-20T08:55:29;101997.22;;;16.94;43.40
49063;BME280;34876;51.464;-0.150;2023-12-20T08:57:59;101988.83;;;17.18;42.98
49063;BME280;34876;51.464;-0.150;2023-12-20T09:00:28;101991.45;;;17.20;42.84
49063;BME280;34876;51.464;-0.150;2023-12-20T09:02:58;101993.00;;;17.24;42.75
49063;BME280;34876;51.464;-0.150;2023-12-20T09:05:27;101989.20;;;17.26;42.70
49063;BME280;34876;51.464;-0.150;2023-12-20T09:07:56;101973.48;;;17.26;42.97
49063;BME280;34876;51.464;-0.150;2023-12-20T09:10:26;101971.80;;;17.25;42.94
49063;BME280;34876;51.464;-0.150;2023-12-20T09:12:56;101975.74;;;17.27;42.92
49063;BME280;34876;51.464;-0.150;2023-12-20T09:15:26;101973.60;;;17.26;42.93
49063;BME280;34876;51.464;-0.150;2023-12-20T09:17:56;101975.56;;;17.26;42.81
49063;BME280;34876;51.464;-0.150;2023-12-20T09:20:25;101976.78;;;17.24;42.98
49063;BME280;34876;51.464;-0.150;2023-12-20T09:22:55;101972.35;;;17.28;42.95
49063;BME280;34876;51.464;-0.150;2023-12-20T09:25:24;101973.63;;;17.39;43.05
49063;BME280;34876;51.464;-0.150;2023-12-20T09:27:54;101976.70;;;17.46;42.72
49063;BME280;34876;51.464;-0.150;2023-12-20T09:30:23;101966.53;;;17.39;42.96
49063;BME280;34876;51.464;-0.150;2023-12-20T09:32:52;101963.79;;;17.48;42.74
49063;BME280;34876;51.464;-0.150;2023-12-20T09:35:22;101967.42;;;17.45;43.27
49063;BME280;34876;51.464;-0.150;2023-12-20T09:37:50;101972.89;;;17.13;43.78
49063;BME280;34876;51.464;-0.150;2023-12-20T09:40:22;101976.44;;;17.51;43.26
49063;BME280;34876;51.464;-0.150;2023-12-20T09:42:57;101979.52;;;17.51;42.90
49063;BME280;34876;51.464;-0.150;2023-12-20T09:45:28;101978.39;;;17.41;43.22
49063;BME280;34876;51.464;-0.150;2023-12-20T09:47:58;101977.41;;;17.38;43.51
49063;BME280;34876;51.464;-0.150;2023-12-20T09:50:30;101987.18;;;17.40;43.54
49063;BME280;34876;51.464;-0.150;2023-12-20T09:53:08;101997.27;;;17.43;43.22
49063;BME280;34876;51.464;-0.150;2023-12-20T09:55:38;101995.17;;;17.44;43.25
49063;BME280;34876;51.464;-0.150;2023-12-20T09:58:07;101996.45;;;17.07;44.28
49063;BME280;34876;51.464;-0.150;2023-12-20T10:00:36;101984.24;;;17.36;43.57
49063;BME280;34876;51.464;-0.150;2023-12-20T10:03:06;101972.17;;;17.36;43.62
49063;BME280;34876;51.464;-0.150;2023-12-20T10:05:35;101978.69;;;17.40;43.65
49063;BME280;34876;51.464;-0.150;2023-12-20T10:08:05;101963.19;;;17.40;43.53
49063;BME280;34876;51.464;-0.150;2023-12-20T10:10:36;101950.83;;;17.32;43.77
49063;BME280;34876;51.464;-0.150;2023-12-20T10:13:06;101967.07;;;17.38;43.67
49063;BME280;34876;51.464;-0.150;2023-12-20T10:15:38;101965.20;;;17.39;43.83
49063;BME280;34876;51.464;-0.150;2023-12-20T10:18:07;101970.93;;;17.11;44.50
49063;BME280;34876;51.464;-0.150;2023-12-20T10:20:36;101964.80;;;17.36;44.29
49063;BME280;34876;51.464;-0.150;2023-12-20T10:23:05;101970.33;;;17.23;44.59
49063;BME280;34876;51.464;-0.150;2023-12-20T10:25:33;101961.73;;;17.32;44.15
49063;BME280;34876;51.464;-0.150;2023-12-20T10:28:11;101965.67;;;17.38;44.10
49063;BME280;34876;51.464;-0.150;2023-12-20T10:30:41;101978.88;;;17.36;44.17
49063;BME280;34876;51.464;-0.150;2023-12-20T10:33:12;101977.33;;;17.41;44.11
49063;BME280;34876;51.464;-0.150;2023-12-20T10:35:41;101967.50;;;17.40;43.97
49063;BME280;34876;51.464;-0.150;2023-12-20T10:38:12;101960.99;;;17.20;43.87
49063;BME280;34876;51.464;-0.150;2023-12-20T10:40:42;101956.31;;;17.37;45.00
49063;BME280;34876;51.464;-0.150;2023-12-20T10:43:12;101957.55;;;17.35;44.81
49063;BME280;34876;51.464;-0.150;2023-12-20T10:45:42;101951.39;;;17.21;45.95
49063;BME280;34876;51.464;-0.150;2023-12-20T10:48:12;101948.63;;;17.34;45.49
49063;BME280;34876;51.464;-0.150;2023-12-20T10:50:42;101945.77;;;17.38;45.49
49063;BME280;34876;51.464;-0.150;2023-12-20T10:53:13;101936.91;;;17.35;45.27
49063;BME280;34876;51.464;-0.150;2023-12-20T10:55:44;101940.29;;;17.15;45.75
49063;BME280;34876;51.464;-0.150;2023-12-20T10:58:16;101935.23;;;17.37;45.51
49063;BME280;34876;51.464;-0.150;2023-12-20T11:00:54;101934.47;;;17.38;45.31
49063;BME280;34876;51.464;-0.150;2023-12-20T11:03:25;101924.11;;;17.37;45.37
49063;BME280;34876;51.464;-0.150;2023-12-20T11:06:01;101917.52;;;17.31;45.42
49063;BME280;34876;51.464;-0.150;2023-12-20T11:08:38;101911.23;;;17.31;45.91
49063;BME280;34876;51.464;-0.150;2023-12-20T11:11:13;101909.15;;;17.36;45.60
49063;BME280;34876;51.464;-0.150;2023-12-20T11:13:54;101906.81;;;17.26;45.30
49063;BME280;34876;51.464;-0.150;2023-12-20T11:16:25;101894.14;;;17.32;45.05
49063;BME280;34876;51.464;-0.150;2023-12-20T11:18:55;101889.06;;;17.37;45.64
49063;BME280;34876;51.464;-0.150;2023-12-20T11:21:24;101882.72;;;17.41;45.03
49063;BME280;34876;51.464;-0.150;2023-12-20T11:23:54;101878.83;;;17.38;45.65
49063;BME280;34876;51.464;-0.150;2023-12-20T11:26:27;101876.28;;;17.34;45.19
49063;BME280;34876;51.464;-0.150;2023-12-20T11:29:52;101868.85;;;17.39;45.36
49063;BME280;34876;51.464;-0.150;2023-12-20T11:32:29;101861.37;;;17.32;45.21
49063;BME280;34876;51.464;-0.150;2023-12-20T11:35:18;101859.26;;;17.40;45.27
49063;BME280;34876;51.464;-0.150;2023-12-20T11:37:51;101854.43;;;17.40;45.19
49063;BME280;34876;51.464;-0.150;2023-12-20T11:40:23;101853.58;;;17.41;45.13
49063;BME280;34876;51.464;-0.150;2023-12-20T11:42:54;101847.37;;;17.38;45.06
49063;BME280;34876;51.464;-0.150;2023-12-20T11:45:24;101848.12;;;17.30;45.68
49063;BME280;34876;51.464;-0.150;2023-12-20T11:48:00;101845.41;;;17.43;44.94
49063;BME280;34876;51.464;-0.150;2023-12-20T11:50:31;101841.75;;;17.43;44.88
49063;BME280;34876;51.464;-0.150;2023-12-20T11:53:00;101840.27;;;17.34;45.51
49063;BME280;34876;51.464;-0.150;2023-12-20T11:55:29;101829.47;;;17.35;45.27
49063;BME280;34876;51.464;-0.150;2023-12-20T11:57:59;101812.87;;;17.43;45.10
49063;BME280;34876;51.464;-0.150;2023-12-20T12:00:29;101801.10;;;17.43;44.77
49063;BME280;34876;51.464;-0.150;2023-12-20T12:02:59;101799.15;;;17.43;45.05
49063;BME280;34876;51.464;-0.150;2023-12-20T12:05:31;101796.36;;;16.78;46.10
49063;BME280;34876;51.464;-0.150;2023-12-20T12:08:03;101791.89;;;17.20;46.11
49063;BME280;34876;51.464;-0.150;2023-12-20T12:10:31;101790.28;;;17.28;45.79
49063;BME280;34876;51.464;-0.150;2023-12-20T12:13:00;101786.74;;;17.36;46.14
49063;BME280;34876;51.464;-0.150;2023-12-20T12:15:31;101778.34;;;17.29;45.41
49063;BME280;34876;51.464;-0.150;2023-12-20T12:18:01;101770.05;;;17.37;45.42
49063;BME280;34876;51.464;-0.150;2023-12-20T12:20:31;101770.49;;;17.39;45.65
49063;BME280;34876;51.464;-0.150;2023-12-20T12:23:00;101772.13;;;17.40;45.70
49063;BME280;34876;51.464;-0.150;2023-12-20T12:25:30;101772.31;;;17.32;45.69
49063;BME280;34876;51.464;-0.150;2023-12-20T12:28:01;101773.32;;;17.37;45.39
49063;BME280;34876;51.464;-0.150;2023-12-20T12:30:31;101782.39;;;17.20;46.20
49063;BME280;34876;51.464;-0.150;2023-12-20T12:33:01;101776.57;;;17.41;45.47
49063;BME280;34876;51.464;-0.150;2023-12-20T12:35:30;101767.98;;;17.25;46.30
49063;BME280;34876;51.464;-0.150;2023-12-20T12:37:59;101769.58;;;17.29;46.14
49063;BME280;34876;51.464;-0.150;2023-12-20T12:40:28;101759.88;;;17.42;45.99
49063;BME280;34876;51.464;-0.150;2023-12-20T12:43:01;101753.05;;;17.15;46.70
49063;BME280;34876;51.464;-0.150;2023-12-20T12:45:31;101759.47;;;17.20;46.05
49063;BME280;34876;51.464;-0.150;2023-12-20T12:48:01;101760.40;;;17.40;45.71
49063;BME280;34876;51.464;-0.150;2023-12-20T12:50:30;101748.76;;;17.23;46.69
49063;BME280;34876;51.464;-0.150;2023-12-20T12:53:01;101740.61;;;17.30;46.39
49063;BME280;34876;51.464;-0.150;2023-12-20T12:55:29;101731.29;;;17.41;45.73
49063;BME280;34876;51.464;-0.150;2023-12-20T12:58:00;101723.34;;;17.32;46.61